Time;durP1;ratioP1;P1;durP2;ratioP2;P2;SDS_P1;SDS_P2;PMS_P1;PMS_P2;Temp;Humidity;BMP_temperature;BMP_pressure;BME280_temperature;BME280_humidity;BME280_pressure;Samples;Min_cycle;Max_cycle;Signal;HPM_P1;HPM_P2
2021/03/29 00:01:51;;;;;;;5.47;3.10;;;11.90;69.30;;;;;;5051507;28;20514;-78
2021/03/29 00:04:17;;;;;;;11.27;3.17;;;11.90;69.60;;;;;;5051214;28;20545;-79
2021/03/29 00:06:48;;;;;;;7.97;2.43;;;11.80;68.70;;;;;;5050525;28;20464;-77
2021/03/29 00:09:18;;;;;;;5.50;2.80;;;11.80;69.50;;;;;;5050940;28;20496;-77
2021/03/29 00:11:45;;;;;;;7.47;2.60;;;11.80;69.30;;;;;;5051505;28;21032;-77
2021/03/29 00:14:12;;;;;;;9.50;3.00;;;11.70;69.50;;;;;;5041209;28;20577;-75
2021/03/29 00:16:40;;;;;;;3.70;2.13;;;11.80;69.90;;;;;;5050717;28;20459;-80
2021/03/29 00:19:08;;;;;;;6.23;2.50;;;11.80;69.20;;;;;;5050922;28;20521;-76
2021/03/29 00:21:36;;;;;;;5.90;2.70;;;11.80;69.30;;;;;;5050214;28;20433;-76
2021/03/29 00:24:07;;;;;;;4.93;2.50;;;11.70;68.70;;;;;;5048958;28;20993;-78
2021/03/29 00:26:36;;;;;;;9.27;3.03;;;11.70;69.40;;;;;;5049677;28;21034;-77
2021/03/29 00:29:03;;;;;;;6.70;2.97;;;11.70;69.70;;;;;;5048894;28;20475;-76
2021/03/29 00:31:33;;;;;;;5.53;2.93;;;11.70;69.20;;;;;;5050031;28;20951;-78
2021/03/29 00:34:00;;;;;;;5.70;2.70;;;11.70;68.60;;;;;;5050584;28;21038;-77
2021/03/29 00:36:29;;;;;;;4.97;2.97;;;11.70;68.80;;;;;;5049741;28;20467;-77
2021/03/29 00:38:56;;;;;;;5.63;3.07;;;11.70;69.00;;;;;;5049192;28;21068;-78
2021/03/29 00:41:24;;;;;;;5.73;2.60;;;11.70;68.90;;;;;;5050448;28;20472;-77
2021/03/29 00:43:51;;;;;;;8.50;2.60;;;11.80;68.50;;;;;;5048583;28;20541;-77
2021/03/29 00:46:20;;;;;;;4.43;2.40;;;11.70;69.20;;;;;;5048993;28;20976;-77
2021/03/29 00:48:49;;;;;;;5.53;2.37;;;11.70;69.00;;;;;;5049066;28;20455;-77
2021/03/29 00:51:21;;;;;;;6.13;2.40;;;11.60;70.30;;;;;;5049620;28;20836;-77
2021/03/29 00:53:56;;;;;;;7.90;3.10;;;11.60;69.10;;;;;;5050737;28;20461;-77
2021/03/29 00:56:23;;;;;;;6.57;3.00;;;11.60;69.50;;;;;;5054059;28;21016;-79
2021/03/29 00:58:51;;;;;;;6.73;2.37;;;11.50;69.60;;;;;;5030113;28;20575;-78
2021/03/29 01:01:21;;;;;;;5.50;2.40;;;11.50;69.70;;;;;;5050185;28;20438;-77
2021/03/29 01:03:54;;;;;;;6.50;2.43;;;11.60;69.90;;;;;;5052463;28;20555;-80
2021/03/29 01:06:24;;;;;;;4.97;2.50;;;11.60;69.30;;;;;;5052905;28;20451;-77
2021/03/29 01:08:53;;;;;;;7.17;2.27;;;11.50;69.50;;;;;;5050918;28;20465;-76
2021/03/29 01:11:27;;;;;;;3.53;2.03;;;11.40;70.70;;;;;;5053065;28;20450;-77
2021/03/29 01:14:25;;;;;;;7.60;3.03;;;11.40;70.10;;;;;;5046992;28;20471;-78
2021/03/29 01:16:58;;;;;;;6.47;1.90;;;11.40;70.60;;;;;;5030448;28;20840;-77
2021/03/29 01:19:47;;;;;;;7.00;2.40;;;11.40;70.30;;;;;;5050494;28;20544;-75
2021/03/29 01:22:16;;;;;;;2.87;1.80;;;11.40;71.00;;;;;;5052653;28;20492;-79
2021/03/29 01:25:06;;;;;;;8.87;2.77;;;11.40;70.50;;;;;;5053620;28;20516;-79
2021/03/29 01:27:47;;;;;;;8.80;2.73;;;11.40;70.00;;;;;;5054170;28;20527;-77
2021/03/29 01:30:14;;;;;;;9.73;2.53;;;11.40;70.30;;;;;;5051724;28;20486;-77
2021/03/29 01:32:44;;;;;;;8.70;2.47;;;11.40;70.60;;;;;;5054323;28;20497;-77
2021/03/29 01:35:39;;;;;;;5.70;2.10;;;11.30;70.90;;;;;;5053291;28;20509;-77
2021/03/29 01:38:07;;;;;;;7.17;2.50;;;11.20;71.20;;;;;;5053813;28;20439;-76
2021/03/29 01:40:36;;;;;;;6.27;2.30;;;11.30;70.70;;;;;;5051543;28;20465;-77
2021/03/29 01:43:06;;;;;;;3.50;2.23;;;11.50;69.90;;;;;;5052064;28;20518;-76
2021/03/29 01:45:33;;;;;;;6.20;2.00;;;11.40;70.30;;;;;;5052341;28;20449;-77
2021/03/29 01:48:02;;;;;;;9.60;2.13;;;11.40;70.40;;;;;;5052901;28;20438;-78
2021/03/29 01:50:32;;;;;;;5.27;2.20;;;11.40;70.50;;;;;;5052718;28;21002;-78
2021/03/29 01:52:59;;;;;;;5.87;2.33;;;11.40;70.90;;;;;;5049101;28;20537;-77
2021/03/29 01:55:29;;;;;;;8.87;2.40;;;11.40;70.90;;;;;;5041395;28;20474;-77
2021/03/29 01:57:59;;;;;;;3.20;2.07;;;11.30;71.00;;;;;;5051749;28;20469;-77
2021/03/29 02:00:31;;;;;;;8.03;2.80;;;11.30;71.50;;;;;;5051661;28;21063;-77
2021/03/29 02:03:00;;;;;;;2.50;2.10;;;11.40;71.50;;;;;;5050719;28;20431;-78
2021/03/29 02:05:28;;;;;;;3.47;2.13;;;11.30;71.10;;;;;;5053465;28;20798;-77
2021/03/29 02:07:55;;;;;;;5.47;2.38;;;11.40;71.00;;;;;;5046966;28;20774;-77
2021/03/29 02:10:25;;;;;;;3.80;2.30;;;11.40;70.80;;;;;;5053639;28;20246;-78
2021/03/29 02:12:52;;;;;;;3.97;2.00;;;11.40;71.20;;;;;;5053311;28;20795;-78
2021/03/29 02:15:24;;;;;;;6.10;2.17;;;11.40;71.00;;;;;;5034175;28;20474;-78
2021/03/29 02:17:59;;;;;;;7.37;2.07;;;11.50;71.10;;;;;;5051801;28;20855;-77
2021/03/29 02:20:32;;;;;;;9.50;2.90;;;11.40;71.30;;;;;;5051512;28;20486;-77
2021/03/29 02:23:00;;;;;;;6.78;2.78;;;11.40;71.20;;;;;;5048612;28;21004;-76
2021/03/29 02:25:29;;;;;;;5.30;2.10;;;11.50;71.20;;;;;;5048839;28;20253;-77
2021/03/29 02:27:58;;;;;;;7.60;1.90;;;11.50;71.30;;;;;;5050685;28;20452;-76
2021/03/29 02:30:27;;;;;;;4.50;2.37;;;11.50;71.20;;;;;;5040605;28;20808;-77
2021/03/29 02:32:54;;;;;;;5.50;2.20;;;11.40;71.70;;;;;;5051043;28;20494;-78
2021/03/29 02:35:23;;;;;;;5.47;1.70;;;11.30;72.30;;;;;;5051807;28;20469;-77
2021/03/29 02:37:57;;;;;;;5.30;1.67;;;11.40;72.20;;;;;;5050762;28;20472;-76
2021/03/29 02:40:27;;;;;;;9.73;2.50;;;11.40;72.10;;;;;;5051546;28;20452;-77
2021/03/29 02:42:56;;;;;;;5.43;1.70;;;11.40;72.10;;;;;;5051520;28;20435;-77
2021/03/29 02:45:25;;;;;;;6.47;2.58;;;11.40;72.60;;;;;;5052090;28;20494;-80
2021/03/29 02:47:56;;;;;;;5.50;2.17;;;11.40;72.50;;;;;;5051311;28;20195;-77
2021/03/29 02:50:25;;;;;;;6.82;2.20;;;11.40;73.10;;;;;;5052706;28;20456;-75
2021/03/29 02:52:59;;;;;;;6.80;2.50;;;11.40;72.90;;;;;;5047341;28;20202;-77
2021/03/29 02:55:28;;;;;;;4.28;2.30;;;11.40;73.60;;;;;;5047822;28;20493;-78
2021/03/29 02:57:59;;;;;;;9.85;2.80;;;11.40;73.40;;;;;;5050546;28;20306;-77
2021/03/29 03:00:26;;;;;;;3.08;1.92;;;11.40;73.40;;;;;;5040182;28;20218;-77
2021/03/29 03:02:56;;;;;;;4.00;2.00;;;11.40;74.20;;;;;;5050122;28;20187;-78
2021/03/29 03:05:27;;;;;;;2.88;1.63;;;11.40;74.10;;;;;;5050602;28;20458;-77
2021/03/29 03:07:54;;;;;;;8.23;2.17;;;11.40;74.50;;;;;;5046161;28;20188;-80
2021/03/29 03:10:21;;;;;;;4.53;1.83;;;11.40;74.60;;;;;;5051167;28;20501;-79
2021/03/29 03:12:49;;;;;;;5.23;1.83;;;11.30;75.10;;;;;;5052102;28;20442;-79
2021/03/29 03:15:24;;;;;;;4.80;2.13;;;11.30;75.30;;;;;;5046734;28;20567;-77
2021/03/29 03:17:53;;;;;;;3.23;2.00;;;11.30;75.30;;;;;;5050539;28;20476;-78
2021/03/29 03:20:19;;;;;;;4.07;1.97;;;11.40;75.70;;;;;;5034039;28;20996;-78
2021/03/29 03:22:58;;;;;;;3.47;1.97;;;11.40;75.80;;;;;;5047983;28;21005;-75
2021/03/29 03:25:29;;;;;;;6.57;1.77;;;11.40;75.70;;;;;;5047632;28;20544;-77
2021/03/29 03:28:00;;;;;;;6.47;2.20;;;11.40;76.30;;;;;;5049848;28;20200;-78
2021/03/29 03:30:28;;;;;;;4.03;1.90;;;11.40;75.80;;;;;;5050185;28;20821;-77
2021/03/29 03:32:55;;;;;;;3.83;1.90;;;11.50;75.70;;;;;;5051431;28;20433;-77
2021/03/29 03:35:25;;;;;;;2.23;1.73;;;11.40;75.80;;;;;;5051928;28;20221;-76
2021/03/29 03:37:59;;;;;;;5.70;2.00;;;11.40;75.70;;;;;;5048259;28;20501;-78
2021/03/29 03:40:30;;;;;;;3.50;1.77;;;11.40;76.10;;;;;;5047389;28;20452;-77
2021/03/29 03:43:03;;;;;;;4.63;2.30;;;11.40;77.40;;;;;;5049892;28;20523;-79
2021/03/29 03:45:44;;;;;;;4.00;2.13;;;11.40;75.80;;;;;;5039909;28;20545;-77
2021/03/29 03:48:12;;;;;;;4.50;1.60;;;11.40;75.90;;;;;;5051049;28;20210;-76
2021/03/29 03:50:41;;;;;;;5.10;1.70;;;11.40;77.60;;;;;;5050288;28;20467;-77
2021/03/29 03:53:09;;;;;;;6.63;2.90;;;11.30;76.50;;;;;;5047387;28;20189;-78
2021/03/29 03:55:36;;;;;;;9.05;2.50;;;11.30;77.10;;;;;;5048257;28;20469;-75
2021/03/29 03:58:03;;;;;;;3.63;1.80;;;11.30;77.00;;;;;;5034179;28;20219;-77
2021/03/29 04:00:30;;;;;;;7.53;2.13;;;11.30;77.10;;;;;;5039534;28;20195;-79
2021/03/29 04:02:56;;;;;;;5.17;2.20;;;11.30;77.10;;;;;;5066205;28;20450;-78
2021/03/29 04:05:23;;;;;;;4.40;2.13;;;11.20;77.40;;;;;;5050231;28;20452;-76
2021/03/29 04:08:10;;;;;;;9.20;2.47;;;11.20;77.50;;;;;;5034160;28;20936;-77
2021/03/29 04:10:49;;;;;;;4.07;2.30;;;11.30;77.50;;;;;;5040597;28;20493;-78
2021/03/29 04:13:30;;;;;;;6.85;3.13;;;11.30;77.20;;;;;;5036928;28;20448;-77
2021/03/29 04:15:58;;;;;;;4.30;1.73;;;11.40;77.30;;;;;;5033143;28;20211;-77
2021/03/29 04:18:26;;;;;;;3.63;2.33;;;11.30;77.60;;;;;;5050949;28;20473;-77
2021/03/29 04:20:53;;;;;;;4.67;1.90;;;11.30;77.80;;;;;;5051014;28;20798;-76
2021/03/29 04:23:22;;;;;;;4.78;1.92;;;11.20;78.10;;;;;;5048858;28;20454;-75
2021/03/29 04:25:52;;;;;;;7.53;2.25;;;11.20;78.60;;;;;;5051558;28;20206;-78
2021/03/29 04:28:19;;;;;;;5.32;2.05;;;11.10;79.00;;;;;;5051538;28;20221;-77
2021/03/29 04:30:46;;;;;;;4.38;1.90;;;11.00;79.40;;;;;;5053384;28;20326;-75
2021/03/29 04:33:13;;;;;;;4.90;2.37;;;11.00;79.30;;;;;;5053678;28;20181;-77
2021/03/29 04:35:39;;;;;;;4.50;2.40;;;11.10;79.20;;;;;;5054987;28;20449;-78
2021/03/29 04:38:06;;;;;;;7.03;2.67;;;11.10;79.20;;;;;;5040006;28;20283;-80
2021/03/29 04:40:34;;;;;;;3.93;1.70;;;11.10;79.00;;;;;;5048783;28;20255;-80
2021/03/29 04:43:00;;;;;;;4.87;1.83;;;11.10;79.30;;;;;;5054311;28;20435;-77
2021/03/29 04:45:27;;;;;;;4.18;2.33;;;11.10;80.00;;;;;;5042555;28;20565;-77
2021/03/29 04:47:54;;;;;;;4.43;1.60;;;11.00;80.50;;;;;;5054976;28;20647;-81
2021/03/29 04:50:22;;;;;;;3.90;2.00;;;10.80;80.70;;;;;;5054321;28;20682;-77
2021/03/29 04:52:51;;;;;;;7.25;1.98;;;10.80;81.00;;;;;;5050586;28;20436;-80
2021/03/29 04:55:18;;;;;;;5.68;1.90;;;10.80;81.40;;;;;;5036516;28;20227;-77
2021/03/29 04:57:44;;;;;;;4.60;3.00;;;10.80;81.20;;;;;;5054550;28;20204;-76
2021/03/29 05:00:12;;;;;;;6.00;2.30;;;10.80;81.00;;;;;;5050643;28;20478;-77
2021/03/29 05:02:40;;;;;;;7.20;2.17;;;10.90;80.70;;;;;;5054373;28;20861;-77
2021/03/29 05:05:08;;;;;;;5.00;2.37;;;10.90;81.20;;;;;;5053828;28;20468;-81
2021/03/29 05:07:34;;;;;;;6.60;2.27;;;10.90;81.10;;;;;;5033360;28;20919;-78
2021/03/29 05:10:02;;;;;;;3.67;1.80;;;10.80;81.90;;;;;;5044862;28;20468;-78
2021/03/29 05:12:31;;;;;;;7.05;2.30;;;10.70;82.40;;;;;;5061476;28;20202;-77
2021/03/29 05:14:58;;;;;;;3.88;2.45;;;10.70;82.20;;;;;;5045772;28;20233;-78
2021/03/29 05:17:24;;;;;;;5.35;2.53;;;10.70;82.60;;;;;;5053049;28;20214;-77
2021/03/29 05:19:50;;;;;;;4.03;2.13;;;10.60;83.20;;;;;;5053649;28;20224;-79
2021/03/29 05:22:17;;;;;;;8.20;2.38;;;10.60;83.90;;;;;;5051630;28;20576;-77
2021/03/29 05:24:43;;;;;;;4.17;1.83;;;10.60;83.40;;;;;;5053533;28;20642;-77
2021/03/29 05:27:10;;;;;;;5.18;1.95;;;10.70;83.20;;;;;;5052967;28;20478;-79
2021/03/29 05:29:43;;;;;;;5.88;2.58;;;10.70;83.30;;;;;;5052023;28;20272;-78
2021/03/29 05:32:21;;;;;;;4.18;2.28;;;10.80;82.70;;;;;;5033422;28;20201;-78
2021/03/29 05:34:50;;;;;;;5.80;2.07;;;10.80;83.00;;;;;;5050987;28;20682;-77
2021/03/29 05:37:18;;;;;;;5.73;2.10;;;10.80;83.00;;;;;;5048673;28;20463;-79
2021/03/29 05:39:45;;;;;;;11.10;2.87;;;10.80;82.80;;;;;;5040899;28;21045;-77
2021/03/29 05:42:16;;;;;;;7.73;2.90;;;10.80;83.00;;;;;;5053612;28;20870;-78
2021/03/29 05:44:43;;;;;;;6.20;2.15;;;10.80;83.10;;;;;;5050993;28;20880;-78
2021/03/29 05:47:10;;;;;;;7.40;2.30;;;10.70;83.50;;;;;;5053495;28;20308;-80
2021/03/29 05:49:39;;;;;;;5.30;2.30;;;10.70;84.00;;;;;;5053190;28;20467;-77
2021/03/29 05:52:06;;;;;;;4.43;2.67;;;10.70;84.00;;;;;;5052381;28;20431;-78
2021/03/29 05:54:33;;;;;;;9.77;2.55;;;10.90;83.80;;;;;;5049633;28;20454;-78
2021/03/29 05:56:59;;;;;;;4.90;2.05;;;10.80;84.10;;;;;;5051730;28;20309;-77
2021/03/29 05:59:34;;;;;;;6.78;1.98;;;10.80;84.10;;;;;;5042334;28;20482;-77
2021/03/29 06:02:00;;;;;;;7.63;3.27;;;10.80;84.20;;;;;;5036499;28;20205;-77
2021/03/29 06:04:43;;;;;;;7.40;2.10;;;10.80;84.10;;;;;;5051804;28;20474;-78
2021/03/29 06:07:14;;;;;;;3.00;1.83;;;10.90;84.20;;;;;;5051181;28;21019;-76
2021/03/29 06:09:46;;;;;;;3.70;2.37;;;10.90;84.30;;;;;;5056638;28;20921;-79
2021/03/29 06:12:15;;;;;;;5.47;2.10;;;10.90;84.20;;;;;;5047589;28;20810;-75
2021/03/29 06:14:44;;;;;;;5.67;2.67;;;11.10;83.90;;;;;;5044451;28;20481;-77
2021/03/29 06:17:12;;;;;;;4.67;2.23;;;11.20;82.90;;;;;;5033375;28;20565;-77
2021/03/29 06:19:58;;;;;;;9.93;2.43;;;11.20;83.10;;;;;;5039803;28;20804;-78
2021/03/29 06:22:32;;;;;;;6.97;2.20;;;11.30;82.60;;;;;;5052598;28;20439;-77
2021/03/29 06:25:08;;;;;;;6.03;2.30;;;11.30;82.50;;;;;;5032841;28;21031;-75
2021/03/29 06:27:49;;;;;;;4.53;2.57;;;11.50;81.90;;;;;;5035378;28;20568;-77
2021/03/29 06:30:37;;;;;;;7.70;2.00;;;11.60;81.00;;;;;;5038751;28;20493;-76
2021/03/29 06:33:17;;;;;;;13.80;3.07;;;11.70;81.10;;;;;;5051923;28;20514;-77
2021/03/29 06:35:48;;;;;;;8.67;3.07;;;11.80;80.90;;;;;;5052015;28;20458;-76
2021/03/29 06:38:19;;;;;;;5.63;2.10;;;11.90;80.80;;;;;;5049230;28;20537;-77
2021/03/29 06:40:58;;;;;;;4.97;2.40;;;12.10;79.80;;;;;;5051224;28;20438;-77
2021/03/29 06:43:35;;;;;;;11.43;4.07;;;12.30;79.50;;;;;;5049740;28;20506;-76
2021/03/29 06:46:19;;;;;;;4.70;2.47;;;12.40;79.20;;;;;;5049389;28;20470;-79
2021/03/29 06:48:54;;;;;;;6.40;2.53;;;12.50;79.30;;;;;;5051106;28;21061;-77
2021/03/29 06:51:31;;;;;;;15.50;2.70;;;12.70;77.80;;;;;;5052344;28;21048;-76
2021/03/29 06:54:07;;;;;;;3.77;1.70;;;12.80;77.40;;;;;;5048098;28;20455;-80
2021/03/29 06:56:43;;;;;;;7.57;2.53;;;13.00;76.20;;;;;;5050640;28;20462;-78
2021/03/29 06:59:20;;;;;;;8.73;3.07;;;13.10;76.30;;;;;;5046463;28;20557;-78
2021/03/29 07:01:52;;;;;;;6.50;2.30;;;13.30;75.50;;;;;;5052320;28;20435;-76
2021/03/29 07:04:21;;;;;;;7.63;2.50;;;13.40;76.10;;;;;;5033816;28;20459;-78
2021/03/29 07:06:51;;;;;;;5.57;2.60;;;13.40;75.70;;;;;;5033391;28;20443;-77
2021/03/29 07:09:26;;;;;;;3.70;1.90;;;13.60;75.10;;;;;;5051746;28;20549;-80
2021/03/29 07:12:05;;;;;;;3.20;1.67;;;13.70;75.20;;;;;;5052094;28;20441;-80
2021/03/29 07:14:43;;;;;;;5.73;1.97;;;13.90;73.40;;;;;;5039164;28;20553;-77
2021/03/29 07:17:11;;;;;;;6.93;2.83;;;14.20;71.60;;;;;;5051713;28;20505;-77
2021/03/29 07:19:39;;;;;;;3.33;2.00;;;14.40;70.90;;;;;;5049864;28;20525;-77
2021/03/29 07:22:06;;;;;;;4.97;2.20;;;14.50;70.50;;;;;;5051021;28;20453;-77
2021/03/29 07:24:38;;;;;;;5.23;2.27;;;14.70;68.80;;;;;;5042027;28;20493;-79
2021/03/29 07:27:06;;;;;;;5.53;2.23;;;14.90;68.70;;;;;;5053070;28;20435;-77
2021/03/29 07:29:37;;;;;;;5.03;2.13;;;14.90;69.30;;;;;;5052674;28;20566;-78
2021/03/29 07:32:30;;;;;;;4.90;2.50;;;15.00;67.90;;;;;;5037250;28;20444;-77
2021/03/29 07:35:07;;;;;;;5.10;2.10;;;15.30;66.40;;;;;;5047282;28;20482;-78
2021/03/29 07:37:34;;;;;;;6.83;2.57;;;15.60;65.10;;;;;;5047574;28;20466;-80
2021/03/29 07:40:15;;;;;;;4.27;3.03;;;15.90;63.00;;;;;;5049960;28;20467;-76
2021/03/29 07:42:45;;;;;;;4.90;1.70;;;16.00;63.70;;;;;;5054065;28;20488;-80
2021/03/29 07:45:18;;;;;;;7.07;2.30;;;16.00;62.20;;;;;;5033152;28;20566;-77
2021/03/29 07:47:48;;;;;;;8.60;2.13;;;16.20;61.60;;;;;;5052224;28;20432;-77
2021/03/29 07:50:24;;;;;;;9.10;2.80;;;16.10;62.50;;;;;;5053427;28;20826;-77
2021/03/29 07:52:56;;;;;;;5.70;2.33;;;16.40;61.50;;;;;;5051312;28;20438;-79
2021/03/29 07:55:25;;;;;;;6.07;2.07;;;16.70;60.70;;;;;;5052116;28;20451;-79
2021/03/29 07:57:51;;;;;;;6.20;2.43;;;16.90;59.30;;;;;;5054104;28;21012;-80
2021/03/29 08:00:25;;;;;;;3.23;2.30;;;17.60;56.50;;;;;;5051440;28;20520;-78
2021/03/29 08:03:17;;;;;;;5.93;2.50;;;17.60;55.70;;;;;;5031126;28;20441;-77
2021/03/29 08:05:49;;;;;;;3.93;1.90;;;17.80;52.60;;;;;;5029249;28;20845;-79
2021/03/29 08:08:31;;;;;;;6.20;2.23;;;17.60;53.50;;;;;;5048462;28;20461;-77
2021/03/29 08:11:17;;;;;;;6.60;2.63;;;17.50;53.80;;;;;;5043067;28;20532;-77
2021/03/29 08:13:49;;;;;;;5.03;2.67;;;17.80;53.00;;;;;;5049236;28;20527;-79
2021/03/29 08:16:22;;;;;;;5.77;2.20;;;18.00;51.10;;;;;;5036792;28;20450;-80
2021/03/29 08:19:25;;;;;;;5.80;2.13;;;18.10;51.30;;;;;;5046825;28;20592;-78
2021/03/29 08:21:59;;;;;;;3.70;2.17;;;18.20;49.40;;;;;;5052693;28;20437;-78
2021/03/29 08:24:56;;;;;;;5.23;2.53;;;18.20;50.20;;;;;;5051593;28;20532;-78
2021/03/29 08:27:26;;;;;;;6.43;2.30;;;18.10;49.40;;;;;;5036212;28;20446;-78
2021/03/29 08:29:55;;;;;;;3.50;2.00;;;18.20;48.70;;;;;;5051842;28;20475;-80
2021/03/29 08:32:32;;;;;;;4.70;1.90;;;18.10;48.30;;;;;;5052713;28;20445;-77
2021/03/29 08:35:02;;;;;;;5.50;2.23;;;18.20;46.10;;;;;;5034191;28;20481;-78
2021/03/29 08:37:57;;;;;;;4.13;1.80;;;18.10;46.40;;;;;;5053159;28;20464;-79
2021/03/29 08:40:32;;;;;;;8.57;2.20;;;18.20;46.50;;;;;;5034958;28;20512;-78
2021/03/29 08:43:05;;;;;;;7.20;2.30;;;18.40;44.90;;;;;;5052106;28;20436;-77
2021/03/29 08:45:32;;;;;;;5.53;2.57;;;18.30;44.80;;;;;;5052172;28;20452;-79
2021/03/29 08:48:08;;;;;;;4.10;1.93;;;18.20;44.00;;;;;;5050655;28;20433;-80
2021/03/29 08:50:39;;;;;;;4.07;1.70;;;18.20;42.40;;;;;;5052628;28;20432;-77
2021/03/29 08:53:14;;;;;;;3.40;2.00;;;18.30;42.40;;;;;;5031333;28;20449;-77
2021/03/29 08:55:43;;;;;;;4.60;2.37;;;18.30;41.30;;;;;;5054438;28;20572;-77
2021/03/29 08:58:11;;;;;;;5.93;1.63;;;18.50;39.60;;;;;;5050594;28;20470;-78
2021/03/29 09:00:43;;;;;;;3.10;1.20;;;18.60;40.20;;;;;;5038263;28;20420;-80
2021/03/29 09:03:17;;;;;;;3.03;1.30;;;18.70;38.40;;;;;;5051419;28;20436;-76
2021/03/29 09:05:45;;;;;;;7.47;1.90;;;18.50;39.40;;;;;;5051808;28;20458;-77
2021/03/29 09:08:12;;;;;;;3.57;1.63;;;18.40;40.40;;;;;;5065438;28;20440;-78
2021/03/29 09:10:40;;;;;;;5.23;1.83;;;18.50;38.90;;;;;;5052295;28;20466;-77
2021/03/29 09:13:10;;;;;;;4.00;1.50;;;18.60;38.80;;;;;;5041940;28;20465;-80
2021/03/29 09:15:51;;;;;;;2.03;1.30;;;18.50;38.90;;;;;;5065783;28;20454;-79
2021/03/29 09:18:26;;;;;;;1.63;1.20;;;18.50;39.10;;;;;;5053673;28;20456;-78
2021/03/29 09:20:53;;;;;;;3.23;1.60;;;18.50;38.70;;;;;;5056299;28;20435;-80
2021/03/29 09:23:22;;;;;;;8.90;1.60;;;18.50;39.00;;;;;;5044052;28;20462;-80
2021/03/29 09:25:52;;;;;;;5.10;1.53;;;18.50;38.00;;;;;;5030635;28;20530;-79
2021/03/29 09:28:23;;;;;;;5.33;1.53;;;18.60;37.80;;;;;;5033904;28;20527;-79
2021/03/29 09:31:18;;;;;;;3.70;1.60;;;18.60;36.50;;;;;;5035698;28;20440;-80
2021/03/29 09:33:46;;;;;;;3.67;1.43;;;18.70;38.30;;;;;;5009429;28;20549;-79
2021/03/29 09:36:15;;;;;;;3.83;1.50;;;18.50;36.40;;;;;;5035872;28;20506;-78
2021/03/29 09:38:54;;;;;;;7.07;1.73;;;18.70;37.40;;;;;;5034741;28;20525;-75
2021/03/29 09:41:29;;;;;;;4.53;1.70;;;18.70;36.90;;;;;;5030163;28;20432;-81
2021/03/29 09:43:58;;;;;;;3.90;1.77;;;18.90;38.30;;;;;;5025343;28;20514;-77
2021/03/29 09:46:29;;;;;;;3.17;1.53;;;19.00;36.30;;;;;;5028581;28;20452;-80
2021/03/29 09:49:07;;;;;;;4.97;2.40;;;19.00;35.80;;;;;;5035582;28;20482;-80
2021/03/29 09:51:35;;;;;;;2.63;1.63;;;19.20;36.20;;;;;;5034268;28;20428;-77
2021/03/29 09:54:32;;;;;;;4.50;2.30;;;19.20;35.50;;;;;;5022609;28;20488;-79
2021/03/29 09:57:17;;;;;;;3.33;1.30;;;19.30;34.70;;;;;;5037503;28;20476;-80
2021/03/29 09:59:44;;;;;;;2.67;1.50;;;19.30;33.90;;;;;;5009917;28;20471;-78
2021/03/29 10:02:17;;;;;;;3.47;1.67;;;19.30;35.50;;;;;;5017258;28;20441;-77
2021/03/29 10:04:46;;;;;;;4.30;1.90;;;19.30;34.30;;;;;;5033729;28;20495;-77
2021/03/29 10:07:18;;;;;;;4.20;2.03;;;19.60;34.60;;;;;;5072872;22;20605;-78
2021/03/29 10:09:46;;;;;;;8.07;1.60;;;19.50;34.50;;;;;;5057206;28;20836;-78
2021/03/29 10:12:24;;;;;;;2.80;1.20;;;19.50;34.50;;;;;;5053238;28;20459;-78
2021/03/29 10:15:12;;;;;;;3.57;1.80;;;19.80;33.40;;;;;;5049008;28;20471;-78
2021/03/29 10:17:40;;;;;;;2.53;1.77;;;20.00;33.20;;;;;;5072555;28;20971;-78
2021/03/29 10:20:13;;;;;;;3.53;1.93;;;19.90;31.70;;;;;;5045362;28;20462;-77
2021/03/29 10:22:40;;;;;;;3.50;1.60;;;19.80;32.90;;;;;;5072700;28;20577;-78
2021/03/29 10:25:16;;;;;;;2.60;1.50;;;19.80;32.40;;;;;;5038999;28;20539;-78
2021/03/29 10:27:51;;;;;;;5.90;2.03;;;19.80;34.00;;;;;;5068092;28;20465;-78
2021/03/29 10:30:20;;;;;;;5.23;2.13;;;19.80;34.80;;;;;;5061369;28;20543;-78
2021/03/29 10:32:50;;;;;;;3.40;1.53;;;19.80;34.40;;;;;;5073792;28;20424;-77
2021/03/29 10:35:18;;;;;;;5.23;1.53;;;19.90;33.00;;;;;;5093449;28;20932;-79
2021/03/29 10:37:45;;;;;;;1.93;1.57;;;19.80;32.70;;;;;;5074330;28;20497;-78
2021/03/29 10:40:12;;;;;;;2.63;1.67;;;19.80;31.10;;;;;;5073737;28;20494;-78
2021/03/29 10:42:40;;;;;;;3.70;1.33;;;19.70;33.10;;;;;;5055250;28;20443;-78
2021/03/29 10:45:15;;;;;;;4.07;2.00;;;19.60;34.10;;;;;;5046735;28;20468;-78
2021/03/29 10:47:45;;;;;;;2.03;1.77;;;19.60;31.70;;;;;;5056773;28;20432;-78
2021/03/29 10:50:18;;;;;;;2.87;1.57;;;19.70;31.80;;;;;;5072160;28;20502;-78
2021/03/29 10:52:45;;;;;;;7.73;1.87;;;19.70;32.70;;;;;;5051650;28;20538;-78
2021/03/29 10:55:16;;;;;;;5.90;2.10;;;19.60;33.40;;;;;;5067032;28;20473;-78
2021/03/29 10:57:46;;;;;;;4.50;1.67;;;19.50;33.70;;;;;;5052082;28;20463;-78
2021/03/29 11:00:18;;;;;;;2.20;1.57;;;19.60;31.10;;;;;;5071730;28;20469;-78
2021/03/29 11:02:46;;;;;;;1.87;1.40;;;19.60;31.30;;;;;;5086161;28;20515;-78
2021/03/29 11:05:14;;;;;;;3.30;1.47;;;19.70;29.30;;;;;;5073803;28;20458;-78
2021/03/29 11:07:40;;;;;;;3.37;2.63;;;19.70;30.60;;;;;;5063211;28;20484;-78
2021/03/29 11:10:07;;;;;;;3.47;2.53;;;19.70;34.20;;;;;;5067511;28;20472;-78
2021/03/29 11:12:34;;;;;;;3.83;2.73;;;19.70;30.80;;;;;;5092207;28;20940;-78
2021/03/29 11:15:00;;;;;;;4.17;2.20;;;19.70;31.30;;;;;;5081967;28;20528;-78
2021/03/29 11:17:29;;;;;;;3.30;1.63;;;19.80;30.00;;;;;;5074054;28;20919;-78
2021/03/29 11:19:57;;;;;;;7.20;2.10;;;19.80;29.80;;;;;;5068645;28;20464;-78
2021/03/29 11:22:23;;;;;;;2.30;1.70;;;19.80;29.40;;;;;;5056417;28;20496;-78
2021/03/29 11:24:53;;;;;;;9.83;2.40;;;19.70;29.50;;;;;;5044783;28;20479;-78
2021/03/29 11:27:21;;;;;;;5.00;2.43;;;19.70;28.70;;;;;;5069283;28;20530;-78
2021/03/29 11:29:51;;;;;;;2.77;1.80;;;19.80;31.50;;;;;;5067956;28;20489;-78
2021/03/29 11:32:18;;;;;;;2.97;2.30;;;19.60;31.90;;;;;;5074407;28;20439;-78
2021/03/29 11:34:45;;;;;;;3.73;1.63;;;19.60;32.60;;;;;;5074112;28;20459;-78
2021/03/29 11:37:11;;;;;;;2.63;1.40;;;19.40;32.90;;;;;;5081308;28;20864;-78
2021/03/29 11:39:38;;;;;;;4.60;1.77;;;19.30;33.90;;;;;;5070090;28;20455;-78
2021/03/29 11:42:05;;;;;;;1.83;1.57;;;19.30;32.80;;;;;;5054506;28;20446;-78
2021/03/29 11:44:31;;;;;;;6.20;2.07;;;19.20;34.30;;;;;;5071770;28;20470;-78
2021/03/29 11:46:59;;;;;;;2.60;1.50;;;19.20;34.30;;;;;;5054481;28;20482;-78
2021/03/29 11:49:26;;;;;;;4.53;2.27;;;19.30;34.30;;;;;;5053957;28;20548;-78
2021/03/29 11:51:53;;;;;;;7.30;2.37;;;19.30;33.60;;;;;;5053986;28;20446;-78
2021/03/29 11:54:20;;;;;;;2.93;1.97;;;19.30;31.80;;;;;;5053610;28;20550;-78
2021/03/29 11:56:48;;;;;;;5.23;2.97;;;19.30;34.30;;;;;;5054094;28;20446;-78
2021/03/29 11:59:14;;;;;;;5.43;2.10;;;19.20;34.30;;;;;;5052633;28;20472;-78
2021/03/29 12:01:49;;;;;;;4.87;3.67;;;19.40;34.50;;;;;;5054046;28;20429;-78
2021/03/29 12:04:24;;;;;;;4.93;2.13;;;19.40;34.50;;;;;;5071307;28;21001;-78
2021/03/29 12:06:59;;;;;;;3.40;2.33;;;19.40;34.50;;;;;;5037382;28;20814;-78
2021/03/29 12:12:03;;;;;;;3.73;1.80;;;19.40;34.50;;;;;;5079048;28;20520;-78
2021/03/29 12:14:33;;;;;;;3.00;2.03;;;19.50;34.50;;;;;;5074164;28;20467;-78
2021/03/29 12:17:03;;;;;;;6.73;2.60;;;19.60;35.10;;;;;;5054228;28;20459;-78
2021/03/29 12:19:30;;;;;;;3.80;1.70;;;19.50;34.50;;;;;;5071921;28;20542;-78
2021/03/29 12:22:05;;;;;;;3.73;1.73;;;19.50;33.80;;;;;;5074545;28;20467;-78
2021/03/29 12:24:35;;;;;;;1.90;1.80;;;19.60;34.60;;;;;;5073583;28;20543;-78
2021/03/29 12:27:04;;;;;;;4.37;1.70;;;19.60;34.60;;;;;;5071637;28;20427;-78
2021/03/29 12:29:38;;;;;;;3.60;2.10;;;19.80;35.40;;;;;;5055079;28;20512;-78
2021/03/29 12:32:07;;;;;;;4.43;2.03;;;19.80;31.60;;;;;;5074217;28;20436;-78
2021/03/29 12:34:46;;;;;;;6.17;2.43;;;19.90;32.50;;;;;;5073506;28;20461;-78
2021/03/29 12:37:14;;;;;;;3.50;2.10;;;19.90;32.40;;;;;;5070789;28;20591;-78
2021/03/29 12:39:56;;;;;;;3.50;2.17;;;19.80;32.50;;;;;;5054750;28;20519;-78
2021/03/29 12:42:30;;;;;;;2.97;2.60;;;19.90;32.10;;;;;;5056420;28;20417;-78
2021/03/29 12:44:57;;;;;;;3.13;2.40;;;19.90;34.60;;;;;;5075710;28;20494;-78
2021/03/29 12:47:30;;;;;;;6.30;2.17;;;19.90;31.20;;;;;;5074340;28;20428;-78
2021/03/29 12:50:12;;;;;;;2.17;1.40;;;20.00;33.30;;;;;;5076862;28;20485;-78
2021/03/29 12:52:41;;;;;;;3.10;1.70;;;20.20;29.60;;;;;;5073973;28;20476;-78
2021/03/29 12:55:09;;;;;;;3.43;1.93;;;20.30;27.10;;;;;;5094867;28;20904;-78
2021/03/29 12:57:36;;;;;;;2.10;1.73;;;20.50;27.80;;;;;;5071683;28;20461;-79
2021/03/29 13:00:05;;;;;;;2.27;1.80;;;20.50;27.30;;;;;;5085572;28;20502;-78
2021/03/29 13:02:32;;;;;;;3.57;1.70;;;20.50;28.30;;;;;;5077364;28;20423;-78
2021/03/29 13:04:59;;;;;;;3.50;1.83;;;20.50;28.60;;;;;;5075118;28;20461;-80
2021/03/29 13:07:34;;;;;;;5.50;1.80;;;20.60;25.80;;;;;;5046136;28;20452;-80
2021/03/29 13:12:41;;;;;;;2.87;2.00;;;20.60;27.60;;;;;;5077120;28;20451;-77